ANA626 RJFK-RJTT
Flight info
| Callsign | ANA626 |
|---|---|
| Flight time | 1h 18m |
| Altitude | 39000 |
| Route | MIDAI M750 BILLY Y21 AKSEL |
| Aircraft | A321/M-SDE3FGHIRWY/LB1 |
Departure
| Time | 2026-05-08 12:59 |
|---|---|
| Airport | Kagoshima Airport (RJFK) |
Arrival
| Time | 2026-05-08 14:18 |
|---|---|
| Airport | Tokyo Haneda International Airport (RJTT) |
| Time | Latitude | Longitude | Altitude | Speed | Heading |
|---|---|---|---|---|---|
| 2026-05-08 11:55 | 31.80213 | 130.71623 | 860 ft | 0 kts | 240° |
| 2026-05-08 12:48 | 31.80220 | 130.71637 | 871 ft | 4 kts | 240° |
| 2026-05-08 12:48 | 31.80233 | 130.71664 | 867 ft | 4 kts | 240° |
| 2026-05-08 12:48 | 31.80247 | 130.71692 | 868 ft | 4 kts | 240° |
| 2026-05-08 12:48 | 31.80260 | 130.71718 | 868 ft | 3 kts | 240° |
| 2026-05-08 12:49 | 31.80272 | 130.71739 | 869 ft | 4 kts | 211° |
| 2026-05-08 12:49 | 31.80295 | 130.71743 | 869 ft | 4 kts | 160° |
| 2026-05-08 12:49 | 31.80318 | 130.71730 | 870 ft | 2 kts | 150° |
| 2026-05-08 12:49 | 31.80319 | 130.71729 | 870 ft | 0 kts | 150° |
| 2026-05-08 12:51 | 31.80318 | 130.71730 | 870 ft | 1 kts | 150° |
| 2026-05-08 12:52 | 31.80312 | 130.71734 | 870 ft | 2 kts | 150° |
| 2026-05-08 12:52 | 31.80268 | 130.71764 | 868 ft | 7 kts | 150° |
| 2026-05-08 12:52 | 31.80220 | 130.71796 | 867 ft | 9 kts | 150° |
| 2026-05-08 12:53 | 31.80162 | 130.71835 | 867 ft | 10 kts | 150° |
| 2026-05-08 12:53 | 31.80096 | 130.71879 | 867 ft | 12 kts | 150° |
| 2026-05-08 12:53 | 31.80017 | 130.71932 | 865 ft | 14 kts | 150° |
| 2026-05-08 12:53 | 31.79924 | 130.71995 | 862 ft | 16 kts | 150° |
| 2026-05-08 12:54 | 31.79825 | 130.72062 | 860 ft | 16 kts | 150° |
| 2026-05-08 12:54 | 31.79730 | 130.72126 | 859 ft | 16 kts | 150° |
| 2026-05-08 12:54 | 31.79635 | 130.72191 | 857 ft | 16 kts | 150° |
| 2026-05-08 12:54 | 31.79543 | 130.72253 | 857 ft | 14 kts | 150° |
| 2026-05-08 12:55 | 31.79462 | 130.72308 | 855 ft | 13 kts | 150° |
| 2026-05-08 12:55 | 31.79383 | 130.72361 | 854 ft | 14 kts | 150° |
| 2026-05-08 12:55 | 31.79304 | 130.72415 | 854 ft | 12 kts | 150° |
| 2026-05-08 12:55 | 31.79235 | 130.72461 | 854 ft | 10 kts | 150° |
| 2026-05-08 12:56 | 31.79174 | 130.72502 | 853 ft | 10 kts | 150° |
| 2026-05-08 12:56 | 31.79135 | 130.72531 | 852 ft | 7 kts | 142° |
| 2026-05-08 12:56 | 31.79119 | 130.72581 | 851 ft | 7 kts | 90° |
| 2026-05-08 12:56 | 31.79135 | 130.72629 | 850 ft | 2 kts | 61° |
| 2026-05-08 12:58 | 31.79139 | 130.72639 | 849 ft | 4 kts | 61° |
| 2026-05-08 12:58 | 31.79163 | 130.72679 | 848 ft | 8 kts | 45° |
| 2026-05-08 12:58 | 31.79209 | 130.72698 | 849 ft | 7 kts | 358° |
| 2026-05-08 12:58 | 31.79257 | 130.72672 | 850 ft | 11 kts | 331° |
| 2026-05-08 12:59 | 31.79496 | 130.72510 | 854 ft | 74 kts | 330° |
| 2026-05-08 12:59 | 31.80119 | 130.72089 | 864 ft | 129 kts | 330° |
| 2026-05-08 12:59 | 31.81000 | 130.71486 | 1071 ft | 152 kts | 329° |
| 2026-05-08 12:59 | 31.81870 | 130.70844 | 1838 ft | 144 kts | 328° |
| 2026-05-08 13:00 | 31.82725 | 130.70265 | 2542 ft | 141 kts | 345° |
| 2026-05-08 13:00 | 31.83665 | 130.70508 | 3109 ft | 149 kts | 31° |
| 2026-05-08 13:00 | 31.84267 | 130.71537 | 3611 ft | 164 kts | 66° |
| 2026-05-08 13:00 | 31.84302 | 130.72931 | 4100 ft | 174 kts | 84° |
| 2026-05-08 13:01 | 31.84233 | 130.74423 | 4340 ft | 195 kts | 89° |
| 2026-05-08 13:01 | 31.83754 | 130.76049 | 4491 ft | 224 kts | 110° |
| 2026-05-08 13:01 | 31.83088 | 130.77773 | 4626 ft | 246 kts | 110° |
| 2026-05-08 13:01 | 31.82361 | 130.79717 | 4906 ft | 272 kts | 110° |
| 2026-05-08 13:02 | 31.81579 | 130.81809 | 5439 ft | 285 kts | 110° |
| 2026-05-08 13:02 | 31.80768 | 130.83972 | 6142 ft | 293 kts | 111° |
| 2026-05-08 13:02 | 31.79935 | 130.86178 | 6868 ft | 298 kts | 112° |
| 2026-05-08 13:02 | 31.79088 | 130.88420 | 7613 ft | 302 kts | 113° |
| 2026-05-08 13:03 | 31.78228 | 130.90689 | 8343 ft | 307 kts | 114° |
| 2026-05-08 13:03 | 31.77353 | 130.92992 | 9100 ft | 310 kts | 114° |
| 2026-05-08 13:03 | 31.76471 | 130.95312 | 9849 ft | 313 kts | 115° |
| 2026-05-08 13:03 | 31.75579 | 130.97659 | 10288 ft | 329 kts | 115° |
| 2026-05-08 13:04 | 31.74611 | 131.00200 | 10441 ft | 352 kts | 115° |
| 2026-05-08 13:04 | 31.73589 | 131.02888 | 10758 ft | 367 kts | 115° |
| 2026-05-08 13:04 | 31.72541 | 131.05647 | 11336 ft | 374 kts | 115° |
| 2026-05-08 13:04 | 31.71476 | 131.08461 | 11961 ft | 379 kts | 115° |
| 2026-05-08 13:05 | 31.70398 | 131.11307 | 12597 ft | 384 kts | 115° |
| 2026-05-08 13:05 | 31.69305 | 131.14190 | 13223 ft | 390 kts | 116° |
| 2026-05-08 13:05 | 31.68204 | 131.17080 | 13846 ft | 395 kts | 116° |
| 2026-05-08 13:05 | 31.67075 | 131.20039 | 14398 ft | 399 kts | 116° |
| 2026-05-08 13:06 | 31.65932 | 131.23022 | 15009 ft | 403 kts | 116° |
| 2026-05-08 13:06 | 31.64780 | 131.26033 | 15598 ft | 406 kts | 116° |
| 2026-05-08 13:06 | 31.64012 | 131.28040 | 16009 ft | 409 kts | 117° |
| 2026-05-08 13:06 | 31.62956 | 131.31155 | 16591 ft | 415 kts | 108° |
| 2026-05-08 13:07 | 31.62412 | 131.34510 | 17121 ft | 422 kts | 95° |
| 2026-05-08 13:07 | 31.62637 | 131.39065 | 17909 ft | 424 kts | 77° |
| 2026-05-08 13:07 | 31.63496 | 131.42369 | 18472 ft | 425 kts | 64° |
| 2026-05-08 13:07 | 31.64889 | 131.45427 | 18862 ft | 427 kts | 55° |
| 2026-05-08 13:08 | 31.66429 | 131.48418 | 19305 ft | 430 kts | 55° |
| 2026-05-08 13:08 | 31.67988 | 131.51445 | 19698 ft | 436 kts | 55° |
| 2026-05-08 13:08 | 31.69027 | 131.53470 | 19972 ft | 439 kts | 56° |
| 2026-05-08 13:08 | 31.71147 | 131.57627 | 20443 ft | 448 kts | 56° |
| 2026-05-08 13:09 | 31.72209 | 131.59716 | 20627 ft | 453 kts | 56° |
| 2026-05-08 13:09 | 31.73836 | 131.62916 | 21078 ft | 457 kts | 55° |
| 2026-05-08 13:09 | 31.76006 | 131.67184 | 21624 ft | 463 kts | 55° |
| 2026-05-08 13:09 | 31.77666 | 131.70452 | 22014 ft | 467 kts | 55° |
| 2026-05-08 13:10 | 31.78796 | 131.72674 | 22276 ft | 471 kts | 55° |
| 2026-05-08 13:10 | 31.80484 | 131.75993 | 22653 ft | 475 kts | 55° |
| 2026-05-08 13:10 | 31.82166 | 131.79301 | 22986 ft | 480 kts | 55° |
| 2026-05-08 13:10 | 31.83884 | 131.82688 | 23344 ft | 485 kts | 55° |
| 2026-05-08 13:11 | 31.85622 | 131.86116 | 23663 ft | 491 kts | 55° |
| 2026-05-08 13:11 | 31.87376 | 131.89576 | 23954 ft | 494 kts | 55° |
| 2026-05-08 13:11 | 31.89142 | 131.93062 | 24285 ft | 497 kts | 56° |
| 2026-05-08 13:11 | 31.90915 | 131.96568 | 24623 ft | 500 kts | 56° |
| 2026-05-08 13:12 | 31.92697 | 132.00096 | 24947 ft | 503 kts | 56° |
| 2026-05-08 13:12 | 31.94484 | 132.03645 | 25289 ft | 505 kts | 56° |
| 2026-05-08 13:12 | 31.96281 | 132.07220 | 25643 ft | 508 kts | 56° |
| 2026-05-08 13:12 | 31.98059 | 132.10758 | 25969 ft | 511 kts | 56° |
| 2026-05-08 13:13 | 31.99876 | 132.14374 | 26308 ft | 513 kts | 56° |
| 2026-05-08 13:13 | 32.01693 | 132.17997 | 26639 ft | 516 kts | 56° |
| 2026-05-08 13:13 | 32.03524 | 132.21645 | 26941 ft | 518 kts | 56° |
| 2026-05-08 13:13 | 32.05363 | 132.25308 | 27251 ft | 521 kts | 57° |
| 2026-05-08 13:14 | 32.07213 | 132.28998 | 27603 ft | 523 kts | 57° |
| 2026-05-08 13:14 | 32.09066 | 132.32700 | 27961 ft | 525 kts | 57° |
| 2026-05-08 13:14 | 32.10920 | 132.36410 | 28283 ft | 527 kts | 57° |
| 2026-05-08 13:14 | 32.12755 | 132.40104 | 28585 ft | 529 kts | 58° |
| 2026-05-08 13:15 | 32.14537 | 132.43910 | 28857 ft | 533 kts | 60° |
| 2026-05-08 13:15 | 32.16231 | 132.47804 | 29134 ft | 536 kts | 62° |
| 2026-05-08 13:15 | 32.17868 | 132.51780 | 29451 ft | 538 kts | 62° |
| 2026-05-08 13:15 | 32.19474 | 132.55778 | 29757 ft | 540 kts | 63° |
| 2026-05-08 13:16 | 32.21091 | 132.59786 | 30042 ft | 542 kts | 62° |
| 2026-05-08 13:16 | 32.22736 | 132.63795 | 30252 ft | 544 kts | 62° |
| 2026-05-08 13:16 | 32.24419 | 132.67814 | 30475 ft | 546 kts | 62° |
| 2026-05-08 13:16 | 32.26124 | 132.71831 | 30724 ft | 548 kts | 61° |
| 2026-05-08 13:17 | 32.27817 | 132.75798 | 31083 ft | 548 kts | 61° |
| 2026-05-08 13:17 | 32.29530 | 132.79818 | 31397 ft | 548 kts | 62° |
| 2026-05-08 13:17 | 32.31237 | 132.83840 | 31724 ft | 548 kts | 62° |
| 2026-05-08 13:17 | 32.32937 | 132.87866 | 32068 ft | 548 kts | 62° |
| 2026-05-08 13:18 | 32.34629 | 132.91904 | 32415 ft | 547 kts | 62° |
| 2026-05-08 13:18 | 32.36314 | 132.95943 | 32747 ft | 547 kts | 62° |
| 2026-05-08 13:18 | 32.37997 | 132.99977 | 33131 ft | 547 kts | 63° |
| 2026-05-08 13:18 | 32.39679 | 133.04008 | 33434 ft | 547 kts | 63° |
| 2026-05-08 13:19 | 32.41363 | 133.08050 | 33770 ft | 547 kts | 63° |
| 2026-05-08 13:19 | 32.43019 | 133.12027 | 34090 ft | 546 kts | 63° |
| 2026-05-08 13:19 | 32.44698 | 133.16064 | 34366 ft | 546 kts | 63° |
| 2026-05-08 13:19 | 32.46375 | 133.20099 | 34661 ft | 545 kts | 63° |
| 2026-05-08 13:20 | 32.48051 | 133.24121 | 34931 ft | 545 kts | 63° |
| 2026-05-08 13:20 | 32.49727 | 133.28146 | 35221 ft | 544 kts | 63° |
| 2026-05-08 13:20 | 32.51396 | 133.32162 | 35510 ft | 544 kts | 63° |
| 2026-05-08 13:20 | 32.53062 | 133.36175 | 35779 ft | 543 kts | 62° |
| 2026-05-08 13:21 | 32.54727 | 133.40201 | 36048 ft | 543 kts | 62° |
| 2026-05-08 13:21 | 32.56382 | 133.44215 | 36282 ft | 542 kts | 62° |
| 2026-05-08 13:21 | 32.58013 | 133.48175 | 36589 ft | 542 kts | 62° |
| 2026-05-08 13:21 | 32.59665 | 133.52180 | 36830 ft | 541 kts | 62° |
| 2026-05-08 13:22 | 32.61320 | 133.56188 | 37053 ft | 541 kts | 62° |
| 2026-05-08 13:22 | 32.62976 | 133.60201 | 37293 ft | 541 kts | 62° |
| 2026-05-08 13:22 | 32.64625 | 133.64206 | 37487 ft | 540 kts | 62° |
| 2026-05-08 13:22 | 32.66269 | 133.68215 | 37721 ft | 540 kts | 62° |
| 2026-05-08 13:23 | 32.67909 | 133.72214 | 37966 ft | 539 kts | 62° |
| 2026-05-08 13:23 | 32.69554 | 133.76221 | 38152 ft | 539 kts | 62° |
| 2026-05-08 13:23 | 32.71195 | 133.80225 | 38357 ft | 539 kts | 62° |
| 2026-05-08 13:23 | 32.72811 | 133.84175 | 38519 ft | 539 kts | 62° |
| 2026-05-08 13:24 | 32.74443 | 133.88172 | 38725 ft | 538 kts | 62° |
| 2026-05-08 13:24 | 32.76073 | 133.92168 | 38921 ft | 537 kts | 62° |
| 2026-05-08 13:24 | 32.79332 | 134.00173 | 39006 ft | 539 kts | 62° |
| 2026-05-08 13:25 | 32.82437 | 134.08275 | 39005 ft | 540 kts | 70° |
| 2026-05-08 13:25 | 32.84599 | 134.16786 | 39031 ft | 541 kts | 73° |
| 2026-05-08 13:26 | 32.86740 | 134.25380 | 38999 ft | 542 kts | 73° |
| 2026-05-08 13:26 | 32.88885 | 134.33986 | 38998 ft | 543 kts | 73° |
| 2026-05-08 13:27 | 32.91022 | 134.42597 | 38965 ft | 543 kts | 73° |
| 2026-05-08 13:27 | 32.93150 | 134.51224 | 39001 ft | 543 kts | 73° |
| 2026-05-08 13:28 | 32.95259 | 134.59797 | 39001 ft | 543 kts | 73° |
| 2026-05-08 13:28 | 32.97380 | 134.68424 | 38990 ft | 543 kts | 73° |
| 2026-05-08 13:29 | 32.99487 | 134.77054 | 39004 ft | 542 kts | 74° |
| 2026-05-08 13:29 | 33.01587 | 134.85682 | 39006 ft | 542 kts | 74° |
| 2026-05-08 13:30 | 33.03681 | 134.94256 | 39007 ft | 542 kts | 74° |
| 2026-05-08 13:30 | 33.05777 | 135.02895 | 38983 ft | 543 kts | 74° |
| 2026-05-08 13:31 | 33.07862 | 135.11541 | 38989 ft | 542 kts | 75° |
| 2026-05-08 13:31 | 33.09938 | 135.20179 | 38998 ft | 542 kts | 75° |
| 2026-05-08 13:32 | 33.11932 | 135.28798 | 39006 ft | 542 kts | 76° |
| 2026-05-08 13:32 | 33.13827 | 135.37508 | 39003 ft | 542 kts | 76° |
| 2026-05-08 13:33 | 33.15701 | 135.46223 | 38996 ft | 542 kts | 76° |
| 2026-05-08 13:33 | 33.17610 | 135.54920 | 38994 ft | 542 kts | 76° |
| 2026-05-08 13:34 | 33.19510 | 135.63563 | 38997 ft | 542 kts | 76° |
| 2026-05-08 13:34 | 33.21416 | 135.72263 | 38987 ft | 542 kts | 76° |
| 2026-05-08 13:35 | 33.23306 | 135.80962 | 38995 ft | 542 kts | 77° |
| 2026-05-08 13:35 | 33.25194 | 135.89677 | 38940 ft | 542 kts | 77° |
| 2026-05-08 13:36 | 33.27081 | 135.98404 | 38975 ft | 542 kts | 77° |
| 2026-05-08 13:36 | 33.28943 | 136.07066 | 38969 ft | 543 kts | 77° |
| 2026-05-08 13:37 | 33.30820 | 136.15816 | 38965 ft | 543 kts | 77° |
| 2026-05-08 13:37 | 33.32685 | 136.24566 | 38978 ft | 543 kts | 77° |
| 2026-05-08 13:38 | 33.34542 | 136.33323 | 38965 ft | 544 kts | 77° |
| 2026-05-08 13:38 | 33.36405 | 136.42098 | 38965 ft | 545 kts | 77° |
| 2026-05-08 13:39 | 33.38250 | 136.50831 | 38967 ft | 545 kts | 77° |
| 2026-05-08 13:39 | 33.40103 | 136.59632 | 38952 ft | 545 kts | 77° |
| 2026-05-08 13:40 | 33.41943 | 136.68435 | 38961 ft | 545 kts | 77° |
| 2026-05-08 13:40 | 33.43781 | 136.77249 | 38940 ft | 546 kts | 78° |
| 2026-05-08 13:41 | 33.45600 | 136.85995 | 38948 ft | 546 kts | 77° |
| 2026-05-08 13:41 | 33.47432 | 136.94805 | 38963 ft | 546 kts | 78° |
| 2026-05-08 13:42 | 33.49252 | 137.03634 | 38967 ft | 545 kts | 78° |
| 2026-05-08 13:42 | 33.51069 | 137.12455 | 38964 ft | 545 kts | 78° |
| 2026-05-08 13:43 | 33.52871 | 137.21272 | 38962 ft | 545 kts | 78° |
| 2026-05-08 13:43 | 33.54661 | 137.30029 | 38961 ft | 544 kts | 78° |
| 2026-05-08 13:44 | 33.56452 | 137.38841 | 38972 ft | 544 kts | 78° |
| 2026-05-08 13:44 | 33.58237 | 137.47650 | 38964 ft | 544 kts | 78° |
| 2026-05-08 13:45 | 33.60010 | 137.56464 | 38955 ft | 544 kts | 78° |
| 2026-05-08 13:45 | 33.62520 | 137.65014 | 38927 ft | 544 kts | 62° |
| 2026-05-08 13:46 | 33.66167 | 137.72970 | 38934 ft | 544 kts | 60° |
| 2026-05-08 13:46 | 33.69823 | 137.80933 | 38931 ft | 544 kts | 60° |
| 2026-05-08 13:47 | 33.73460 | 137.88901 | 38915 ft | 545 kts | 60° |
| 2026-05-08 13:47 | 33.75282 | 137.92905 | 38700 ft | 546 kts | 60° |
| 2026-05-08 13:47 | 33.77105 | 137.96911 | 38453 ft | 546 kts | 61° |
| 2026-05-08 13:48 | 33.78923 | 138.00910 | 38150 ft | 546 kts | 61° |
| 2026-05-08 13:48 | 33.80752 | 138.04940 | 37349 ft | 551 kts | 61° |
| 2026-05-08 13:48 | 33.82595 | 138.09003 | 36594 ft | 553 kts | 62° |
| 2026-05-08 13:48 | 33.84415 | 138.13017 | 35783 ft | 558 kts | 62° |
| 2026-05-08 13:49 | 33.86291 | 138.17156 | 34717 ft | 568 kts | 63° |
| 2026-05-08 13:49 | 33.88188 | 138.21355 | 33631 ft | 577 kts | 63° |
| 2026-05-08 13:49 | 33.90109 | 138.25617 | 32781 ft | 577 kts | 63° |
| 2026-05-08 13:49 | 33.92020 | 138.29862 | 32013 ft | 577 kts | 62° |
| 2026-05-08 13:50 | 33.93915 | 138.34088 | 31465 ft | 571 kts | 62° |
| 2026-05-08 13:50 | 33.95790 | 138.38291 | 30870 ft | 568 kts | 62° |
| 2026-05-08 13:50 | 33.97649 | 138.42479 | 30292 ft | 565 kts | 62° |
| 2026-05-08 13:50 | 33.99468 | 138.46585 | 29670 ft | 561 kts | 62° |
| 2026-05-08 13:51 | 34.01296 | 138.50713 | 29096 ft | 552 kts | 62° |
| 2026-05-08 13:51 | 34.03085 | 138.54760 | 28539 ft | 543 kts | 61° |
| 2026-05-08 13:51 | 34.04851 | 138.58755 | 27977 ft | 536 kts | 61° |
| 2026-05-08 13:51 | 34.06591 | 138.62691 | 27436 ft | 528 kts | 61° |
| 2026-05-08 13:52 | 34.08306 | 138.66571 | 26893 ft | 521 kts | 61° |
| 2026-05-08 13:52 | 34.09996 | 138.70400 | 26387 ft | 513 kts | 61° |
| 2026-05-08 13:52 | 34.11636 | 138.74117 | 25889 ft | 507 kts | 60° |
| 2026-05-08 13:52 | 34.13281 | 138.77843 | 25400 ft | 500 kts | 60° |
| 2026-05-08 13:53 | 34.14901 | 138.81516 | 24926 ft | 493 kts | 60° |
| 2026-05-08 13:53 | 34.16499 | 138.85152 | 24453 ft | 486 kts | 60° |
| 2026-05-08 13:53 | 34.18068 | 138.88730 | 23991 ft | 480 kts | 60° |
| 2026-05-08 13:53 | 34.19616 | 138.92271 | 23525 ft | 473 kts | 60° |
| 2026-05-08 13:54 | 34.21146 | 138.95774 | 23023 ft | 467 kts | 60° |
| 2026-05-08 13:54 | 34.22647 | 138.99212 | 22587 ft | 459 kts | 60° |
| 2026-05-08 13:54 | 34.24128 | 139.02595 | 22137 ft | 452 kts | 60° |
| 2026-05-08 13:54 | 34.25565 | 139.05877 | 21710 ft | 445 kts | 60° |
| 2026-05-08 13:55 | 34.27003 | 139.09168 | 21265 ft | 439 kts | 60° |
| 2026-05-08 13:55 | 34.28402 | 139.12421 | 20833 ft | 434 kts | 64° |
| 2026-05-08 13:55 | 34.30754 | 139.19179 | 20175 ft | 442 kts | 67° |
| 2026-05-08 13:56 | 34.31942 | 139.22619 | 19834 ft | 442 kts | 67° |
| 2026-05-08 13:56 | 34.33124 | 139.26038 | 19503 ft | 439 kts | 67° |
| 2026-05-08 13:56 | 34.34303 | 139.29440 | 19170 ft | 436 kts | 67° |
| 2026-05-08 13:56 | 34.35470 | 139.32816 | 18836 ft | 433 kts | 67° |
| 2026-05-08 13:57 | 34.36608 | 139.36115 | 18510 ft | 430 kts | 67° |
| 2026-05-08 13:57 | 34.37753 | 139.39440 | 18183 ft | 427 kts | 67° |
| 2026-05-08 13:57 | 34.38888 | 139.42752 | 17832 ft | 424 kts | 68° |
| 2026-05-08 13:57 | 34.40015 | 139.46051 | 17498 ft | 422 kts | 68° |
| 2026-05-08 13:58 | 34.41134 | 139.49328 | 17183 ft | 420 kts | 68° |
| 2026-05-08 13:58 | 34.42247 | 139.52586 | 16865 ft | 418 kts | 68° |
| 2026-05-08 13:58 | 34.43355 | 139.55827 | 16544 ft | 416 kts | 68° |
| 2026-05-08 13:58 | 34.44446 | 139.59014 | 16226 ft | 414 kts | 68° |
| 2026-05-08 13:59 | 34.45546 | 139.62235 | 15898 ft | 412 kts | 68° |
| 2026-05-08 13:59 | 34.46634 | 139.65433 | 15597 ft | 410 kts | 68° |
| 2026-05-08 13:59 | 34.47830 | 139.68550 | 15281 ft | 408 kts | 59° |
| 2026-05-08 13:59 | 34.49470 | 139.71334 | 14973 ft | 403 kts | 45° |
| 2026-05-08 14:00 | 34.51490 | 139.73642 | 14668 ft | 397 kts | 33° |
| 2026-05-08 14:00 | 34.53774 | 139.75455 | 14361 ft | 391 kts | 25° |
| 2026-05-08 14:00 | 34.56105 | 139.77154 | 14079 ft | 390 kts | 26° |
| 2026-05-08 14:00 | 34.58433 | 139.78858 | 13842 ft | 389 kts | 26° |
| 2026-05-08 14:01 | 34.60712 | 139.80534 | 13602 ft | 388 kts | 26° |
| 2026-05-08 14:01 | 34.63018 | 139.82234 | 13437 ft | 387 kts | 26° |
| 2026-05-08 14:01 | 34.65313 | 139.83928 | 13136 ft | 385 kts | 25° |
| 2026-05-08 14:01 | 34.67689 | 139.85321 | 12840 ft | 375 kts | 12° |
| 2026-05-08 14:02 | 34.70171 | 139.86086 | 12558 ft | 364 kts | 0° |
| 2026-05-08 14:02 | 34.72671 | 139.86441 | 12290 ft | 360 kts | 358° |
| 2026-05-08 14:02 | 34.75120 | 139.86781 | 12012 ft | 358 kts | 358° |
| 2026-05-08 14:02 | 34.77587 | 139.87130 | 11739 ft | 356 kts | 358° |
| 2026-05-08 14:03 | 34.80038 | 139.87478 | 11467 ft | 354 kts | 358° |
| 2026-05-08 14:03 | 34.82477 | 139.87826 | 11184 ft | 352 kts | 358° |
| 2026-05-08 14:03 | 34.84906 | 139.88174 | 10915 ft | 350 kts | 359° |
| 2026-05-08 14:03 | 34.87318 | 139.88519 | 10648 ft | 348 kts | 359° |
| 2026-05-08 14:04 | 34.89718 | 139.88861 | 10374 ft | 346 kts | 359° |
| 2026-05-08 14:04 | 34.92054 | 139.89199 | 10190 ft | 329 kts | 358° |
| 2026-05-08 14:04 | 34.94281 | 139.89395 | 9835 ft | 313 kts | 348° |
| 2026-05-08 14:04 | 34.96340 | 139.89021 | 9704 ft | 296 kts | 335° |
| 2026-05-08 14:05 | 34.98326 | 139.88378 | 9571 ft | 295 kts | 335° |
| 2026-05-08 14:05 | 35.00311 | 139.87750 | 9432 ft | 295 kts | 336° |
| 2026-05-08 14:05 | 35.02296 | 139.87127 | 9213 ft | 294 kts | 336° |
| 2026-05-08 14:05 | 35.04273 | 139.86504 | 8985 ft | 293 kts | 336° |
| 2026-05-08 14:06 | 35.06237 | 139.85887 | 8743 ft | 290 kts | 336° |
| 2026-05-08 14:06 | 35.08194 | 139.85273 | 8524 ft | 290 kts | 336° |
| 2026-05-08 14:06 | 35.10146 | 139.84659 | 8301 ft | 289 kts | 336° |
| 2026-05-08 14:06 | 35.12065 | 139.84055 | 8075 ft | 288 kts | 336° |
| 2026-05-08 14:07 | 35.14003 | 139.83442 | 7844 ft | 287 kts | 336° |
| 2026-05-08 14:07 | 35.15930 | 139.82827 | 7620 ft | 286 kts | 336° |
| 2026-05-08 14:07 | 35.17852 | 139.82213 | 7397 ft | 285 kts | 336° |
| 2026-05-08 14:07 | 35.19768 | 139.81607 | 7168 ft | 283 kts | 336° |
| 2026-05-08 14:08 | 35.21669 | 139.81006 | 6940 ft | 282 kts | 336° |
| 2026-05-08 14:08 | 35.23583 | 139.80398 | 6326 ft | 285 kts | 336° |
| 2026-05-08 14:08 | 35.25494 | 139.79790 | 5771 ft | 282 kts | 336° |
| 2026-05-08 14:08 | 35.27378 | 139.79193 | 5183 ft | 279 kts | 336° |
| 2026-05-08 14:09 | 35.29255 | 139.78631 | 4653 ft | 279 kts | 346° |
| 2026-05-08 14:09 | 35.31183 | 139.78636 | 4285 ft | 284 kts | 5° |
| 2026-05-08 14:09 | 35.33049 | 139.79419 | 4001 ft | 285 kts | 25° |
| 2026-05-08 14:09 | 35.34668 | 139.80841 | 3804 ft | 287 kts | 36° |
| 2026-05-08 14:10 | 35.36224 | 139.82377 | 3670 ft | 288 kts | 36° |
| 2026-05-08 14:10 | 35.37785 | 139.83926 | 3551 ft | 288 kts | 36° |
| 2026-05-08 14:10 | 35.39341 | 139.85471 | 3448 ft | 288 kts | 36° |
| 2026-05-08 14:10 | 35.40875 | 139.86991 | 3314 ft | 278 kts | 36° |
| 2026-05-08 14:11 | 35.42333 | 139.88435 | 3188 ft | 268 kts | 35° |
| 2026-05-08 14:11 | 35.43751 | 139.89855 | 3047 ft | 260 kts | 39° |
| 2026-05-08 14:11 | 35.45027 | 139.91400 | 2807 ft | 255 kts | 41° |
| 2026-05-08 14:11 | 35.46273 | 139.92921 | 2676 ft | 252 kts | 42° |
| 2026-05-08 14:12 | 35.47521 | 139.94441 | 2544 ft | 253 kts | 42° |
| 2026-05-08 14:12 | 35.48772 | 139.95966 | 2420 ft | 253 kts | 42° |
| 2026-05-08 14:12 | 35.50020 | 139.97489 | 2288 ft | 256 kts | 42° |
| 2026-05-08 14:12 | 35.51294 | 139.99047 | 2167 ft | 260 kts | 42° |
| 2026-05-08 14:13 | 35.52564 | 140.00587 | 2046 ft | 260 kts | 39° |
| 2026-05-08 14:13 | 35.54107 | 140.01604 | 1929 ft | 254 kts | 1° |
| 2026-05-08 14:13 | 35.55795 | 140.01302 | 1833 ft | 233 kts | 324° |
| 2026-05-08 14:13 | 35.56808 | 139.99966 | 1772 ft | 206 kts | 290° |
| 2026-05-08 14:14 | 35.57121 | 139.98341 | 1768 ft | 191 kts | 273° |
| 2026-05-08 14:14 | 35.57176 | 139.96736 | 1774 ft | 187 kts | 269° |
| 2026-05-08 14:14 | 35.57174 | 139.95120 | 1781 ft | 190 kts | 268° |
| 2026-05-08 14:14 | 35.57158 | 139.93524 | 1789 ft | 177 kts | 268° |
| 2026-05-08 14:15 | 35.57140 | 139.92134 | 1735 ft | 157 kts | 267° |
| 2026-05-08 14:15 | 35.57112 | 139.90844 | 1535 ft | 147 kts | 266° |
| 2026-05-08 14:15 | 35.57082 | 139.89648 | 1263 ft | 136 kts | 266° |
| 2026-05-08 14:15 | 35.57066 | 139.88502 | 1051 ft | 134 kts | 268° |
| 2026-05-08 14:16 | 35.57056 | 139.87370 | 834 ft | 131 kts | 267° |
| 2026-05-08 14:16 | 35.56901 | 139.86271 | 691 ft | 132 kts | 250° |
| 2026-05-08 14:16 | 35.56520 | 139.85251 | 583 ft | 131 kts | 238° |
| 2026-05-08 14:16 | 35.55937 | 139.84386 | 489 ft | 132 kts | 226° |
| 2026-05-08 14:17 | 35.55279 | 139.83612 | 410 ft | 128 kts | 224° |
| 2026-05-08 14:17 | 35.54638 | 139.82881 | 263 ft | 123 kts | 225° |
| 2026-05-08 14:17 | 35.54047 | 139.82195 | 109 ft | 116 kts | 225° |
| 2026-05-08 14:17 | 35.53495 | 139.81566 | 51 ft | 91 kts | 221° |
| 2026-05-08 14:18 | 35.53165 | 139.81200 | 48 ft | 47 kts | 222° |
| 2026-05-08 14:18 | 35.53038 | 139.81058 | 48 ft | 12 kts | 223° |
| 2026-05-08 14:18 | 35.52970 | 139.80947 | 49 ft | 18 kts | 239° |
| 2026-05-08 14:18 | 35.52921 | 139.80815 | 48 ft | 16 kts | 249° |
| 2026-05-08 14:19 | 35.52884 | 139.80694 | 47 ft | 13 kts | 261° |
| 2026-05-08 14:19 | 35.52906 | 139.80603 | 46 ft | 10 kts | 309° |
| 2026-05-08 14:19 | 35.52964 | 139.80552 | 46 ft | 10 kts | 330° |
| 2026-05-08 14:19 | 35.53019 | 139.80513 | 49 ft | 9 kts | 329° |
| 2026-05-08 14:20 | 35.53106 | 139.80451 | 47 ft | 19 kts | 330° |
| 2026-05-08 14:20 | 35.53218 | 139.80373 | 42 ft | 17 kts | 329° |
| 2026-05-08 14:20 | 35.53326 | 139.80295 | 36 ft | 19 kts | 330° |
| 2026-05-08 14:20 | 35.53445 | 139.80211 | 32 ft | 17 kts | 330° |
| 2026-05-08 14:21 | 35.53547 | 139.80139 | 28 ft | 18 kts | 329° |
| 2026-05-08 14:21 | 35.53651 | 139.80064 | 22 ft | 15 kts | 330° |
| 2026-05-08 14:21 | 35.53712 | 139.80030 | 21 ft | 8 kts | 355° |
| 2026-05-08 14:21 | 35.53753 | 139.80061 | 22 ft | 7 kts | 54° |
| 2026-05-08 14:22 | 35.53775 | 139.80105 | 22 ft | 6 kts | 59° |
| 2026-05-08 14:22 | 35.53804 | 139.80163 | 21 ft | 10 kts | 54° |
| 2026-05-08 14:22 | 35.53860 | 139.80198 | 22 ft | 9 kts | 2° |
| 2026-05-08 14:22 | 35.53915 | 139.80171 | 23 ft | 9 kts | 329° |
| 2026-05-08 14:23 | 35.53968 | 139.80133 | 20 ft | 9 kts | 330° |
| 2026-05-08 14:23 | 35.54027 | 139.80091 | 21 ft | 10 kts | 330° |
| 2026-05-08 14:23 | 35.54086 | 139.80049 | 22 ft | 8 kts | 330° |
| 2026-05-08 14:23 | 35.54130 | 139.80018 | 23 ft | 8 kts | 330° |
| 2026-05-08 14:24 | 35.54208 | 139.79962 | 20 ft | 15 kts | 330° |
| 2026-05-08 14:24 | 35.54300 | 139.79897 | 23 ft | 16 kts | 330° |
| 2026-05-08 14:24 | 35.54394 | 139.79830 | 21 ft | 15 kts | 330° |
| 2026-05-08 14:24 | 35.54481 | 139.79769 | 22 ft | 14 kts | 330° |
| 2026-05-08 14:25 | 35.54563 | 139.79711 | 25 ft | 14 kts | 330° |
| 2026-05-08 14:25 | 35.54648 | 139.79650 | 25 ft | 15 kts | 330° |
| 2026-05-08 14:25 | 35.54739 | 139.79586 | 28 ft | 15 kts | 330° |
| 2026-05-08 14:25 | 35.54826 | 139.79524 | 28 ft | 14 kts | 330° |
| 2026-05-08 14:26 | 35.54912 | 139.79463 | 27 ft | 15 kts | 330° |
| 2026-05-08 14:26 | 35.54996 | 139.79404 | 27 ft | 11 kts | 330° |
| 2026-05-08 14:26 | 35.55045 | 139.79368 | 28 ft | 6 kts | 327° |
| 2026-05-08 14:26 | 35.55067 | 139.79327 | 28 ft | 6 kts | 284° |
| 2026-05-08 14:27 | 35.55064 | 139.79284 | 26 ft | 4 kts | 253° |
| 2026-05-08 14:27 | 35.55042 | 139.79234 | 27 ft | 7 kts | 240° |
| 2026-05-08 14:27 | 35.55033 | 139.79181 | 28 ft | 6 kts | 276° |
| 2026-05-08 14:27 | 35.55061 | 139.79135 | 28 ft | 7 kts | 326° |
| 2026-05-08 14:28 | 35.55094 | 139.79146 | 28 ft | 5 kts | 51° |
| 2026-05-08 14:28 | 35.55109 | 139.79180 | 28 ft | 2 kts | 61° |
| 2026-05-08 14:28 | 35.55117 | 139.79197 | 27 ft | 2 kts | 60° |
| 2026-05-08 14:28 | 35.55121 | 139.79206 | 27 ft | 0 kts | 60° |